Terminal Aerodrome Forecast
Issued by NWS Grand Forks, ND

Home | Current Version | Previous Version | Text Only | Print | Product List | Glossary On
Versions: 1 2 3 4 5 6 7 8 9 10 11 12 13 14 15 16 17 18 19
000
FTUS43 KFGF 100525
TAFGFK
TAF
KGFK 100525Z 1006/1106 29006KT P6SM BKN025
      TEMPO 1006/1009 SCT070
     FM100900 28005KT P6SM SCT080
     FM101800 15004KT P6SM BKN150=

USA.gov is the U.S. government's official web portal to all federal, state and local government web resources and services.